sensor_id;sensor_type;location;lat;lon;timestamp;temperature;humidity
14551;DHT22;7362;50.956;4.184;2022-11-15T00:00:29;12.10;99.90
14551;DHT22;7362;50.956;4.184;2022-11-15T00:02:59;12.10;99.90
14551;DHT22;7362;50.956;4.184;2022-11-15T00:05:37;12.10;99.90
14551;DHT22;7362;50.956;4.184;2022-11-15T00:08:07;12.20;99.90
14551;DHT22;7362;50.956;4.184;2022-11-15T00:11:00;12.20;99.90
14551;DHT22;7362;50.956;4.184;2022-11-15T00:13:28;13.00;99.90
14551;DHT22;7362;50.956;4.184;2022-11-15T00:15:57;12.60;99.90
14551;DHT22;7362;50.956;4.184;2022-11-15T00:18:25;12.20;99.90
14551;DHT22;7362;50.956;4.184;2022-11-15T00:21:02;12.10;99.90
14551;DHT22;7362;50.956;4.184;2022-11-15T00:23:50;12.10;99.90
14551;DHT22;7362;50.956;4.184;2022-11-15T00:35:40;12.10;99.90
14551;DHT22;7362;50.956;4.184;2022-11-15T00:38:07;11.90;99.90
14551;DHT22;7362;50.956;4.184;2022-11-15T00:40:34;12.20;99.90
14551;DHT22;7362;50.956;4.184;2022-11-15T00:43:00;12.20;99.90
14551;DHT22;7362;50.956;4.184;2022-11-15T00:45:26;12.20;99.90
14551;DHT22;7362;50.956;4.184;2022-11-15T00:48:00;12.20;99.90
14551;DHT22;7362;50.956;4.184;2022-11-15T00:50:26;12.30;99.90
14551;DHT22;7362;50.956;4.184;2022-11-15T00:52:53;12.30;99.90
14551;DHT22;7362;50.956;4.184;2022-11-15T00:55:19;12.30;99.90
14551;DHT22;7362;50.956;4.184;2022-11-15T00:57:46;12.20;99.90
14551;DHT22;7362;50.956;4.184;2022-11-15T01:00:33;12.30;99.90
14551;DHT22;7362;50.956;4.184;2022-11-15T01:03:32;12.30;99.90
14551;DHT22;7362;50.956;4.184;2022-11-15T01:06:01;12.30;99.90
14551;DHT22;7362;50.956;4.184;2022-11-15T01:08:28;12.40;99.90
14551;DHT22;7362;50.956;4.184;2022-11-15T01:10:54;12.30;99.90
14551;DHT22;7362;50.956;4.184;2022-11-15T01:13:20;12.40;99.90
14551;DHT22;7362;50.956;4.184;2022-11-15T01:15:47;12.40;99.90
14551;DHT22;7362;50.956;4.184;2022-11-15T01:18:14;12.40;99.90
14551;DHT22;7362;50.956;4.184;2022-11-15T01:20:41;12.40;99.90
14551;DHT22;7362;50.956;4.184;2022-11-15T01:23:14;12.40;99.90
14551;DHT22;7362;50.956;4.184;2022-11-15T01:25:40;12.40;99.90
14551;DHT22;7362;50.956;4.184;2022-11-15T01:28:06;12.30;99.90
14551;DHT22;7362;50.956;4.184;2022-11-15T01:30:39;12.30;99.90
14551;DHT22;7362;50.956;4.184;2022-11-15T01:33:05;12.40;99.90
14551;DHT22;7362;50.956;4.184;2022-11-15T01:35:40;12.40;99.90
14551;DHT22;7362;50.956;4.184;2022-11-15T01:38:10;12.40;99.90
14551;DHT22;7362;50.956;4.184;2022-11-15T01:40:40;12.40;99.90
14551;DHT22;7362;50.956;4.184;2022-11-15T01:43:42;12.30;99.90
14551;DHT22;7362;50.956;4.184;2022-11-15T01:46:30;12.60;99.90
14551;DHT22;7362;50.956;4.184;2022-11-15T01:49:02;12.30;99.90
14551;DHT22;7362;50.956;4.184;2022-11-15T01:51:42;12.30;99.90
14551;DHT22;7362;50.956;4.184;2022-11-15T01:54:16;12.30;99.90
14551;DHT22;7362;50.956;4.184;2022-11-15T01:56:52;12.20;99.90
14551;DHT22;7362;50.956;4.184;2022-11-15T01:59:20;12.20;99.90
14551;DHT22;7362;50.956;4.184;2022-11-15T02:02:00;12.20;99.90
14551;DHT22;7362;50.956;4.184;2022-11-15T02:05:37;12.20;99.90
14551;DHT22;7362;50.956;4.184;2022-11-15T02:08:13;12.30;99.90
14551;DHT22;7362;50.956;4.184;2022-11-15T02:10:46;12.20;99.90
14551;DHT22;7362;50.956;4.184;2022-11-15T02:13:15;12.20;99.90
14551;DHT22;7362;50.956;4.184;2022-11-15T02:16:10;12.20;99.90
14551;DHT22;7362;50.956;4.184;2022-11-15T02:18:44;12.10;99.90
14551;DHT22;7362;50.956;4.184;2022-11-15T02:32:52;12.00;99.90
14551;DHT22;7362;50.956;4.184;2022-11-15T02:38:22;12.00;99.90
14551;DHT22;7362;50.956;4.184;2022-11-15T02:40:56;12.00;99.90
14551;DHT22;7362;50.956;4.184;2022-11-15T02:46:36;12.10;99.90
14551;DHT22;7362;50.956;4.184;2022-11-15T02:49:33;12.10;99.90
14551;DHT22;7362;50.956;4.184;2022-11-15T02:52:00;12.40;99.90
14551;DHT22;7362;50.956;4.184;2022-11-15T02:54:30;12.10;99.90
14551;DHT22;7362;50.956;4.184;2022-11-15T02:57:14;12.10;99.90
14551;DHT22;7362;50.956;4.184;2022-11-15T03:00:04;12.10;99.90
14551;DHT22;7362;50.956;4.184;2022-11-15T03:09:13;12.10;99.90
14551;DHT22;7362;50.956;4.184;2022-11-15T03:12:27;12.10;99.90
14551;DHT22;7362;50.956;4.184;2022-11-15T03:15:05;12.00;99.90
14551;DHT22;7362;50.956;4.184;2022-11-15T03:17:43;12.00;99.90
14551;DHT22;7362;50.956;4.184;2022-11-15T03:20:14;12.00;99.90
14551;DHT22;7362;50.956;4.184;2022-11-15T03:22:44;12.00;99.90
14551;DHT22;7362;50.956;4.184;2022-11-15T03:25:16;12.00;99.90
14551;DHT22;7362;50.956;4.184;2022-11-15T03:27:46;12.20;99.90
14551;DHT22;7362;50.956;4.184;2022-11-15T03:30:14;12.00;99.90
14551;DHT22;7362;50.956;4.184;2022-11-15T03:32:47;12.00;99.90
14551;DHT22;7362;50.956;4.184;2022-11-15T03:35:24;12.00;99.90
14551;DHT22;7362;50.956;4.184;2022-11-15T03:38:14;12.00;99.90
14551;DHT22;7362;50.956;4.184;2022-11-15T03:41:05;12.00;99.90
14551;DHT22;7362;50.956;4.184;2022-11-15T03:44:01;11.90;99.90
14551;DHT22;7362;50.956;4.184;2022-11-15T03:46:33;12.00;99.90
14551;DHT22;7362;50.956;4.184;2022-11-15T03:49:29;11.90;99.90
14551;DHT22;7362;50.956;4.184;2022-11-15T03:51:59;11.90;99.90
14551;DHT22;7362;50.956;4.184;2022-11-15T03:54:25;11.90;99.90
14551;DHT22;7362;50.956;4.184;2022-11-15T03:56:51;11.90;99.90
14551;DHT22;7362;50.956;4.184;2022-11-15T03:59:17;11.80;99.90
14551;DHT22;7362;50.956;4.184;2022-11-15T04:01:43;11.80;99.90
14551;DHT22;7362;50.956;4.184;2022-11-15T04:04:09;11.80;99.90
14551;DHT22;7362;50.956;4.184;2022-11-15T04:06:35;11.80;99.90
14551;DHT22;7362;50.956;4.184;2022-11-15T04:09:01;11.80;99.90
14551;DHT22;7362;50.956;4.184;2022-11-15T04:11:27;11.80;99.90
14551;DHT22;7362;50.956;4.184;2022-11-15T04:13:52;11.80;99.90
14551;DHT22;7362;50.956;4.184;2022-11-15T04:16:22;11.70;99.90
14551;DHT22;7362;50.956;4.184;2022-11-15T04:18:49;11.80;99.90
14551;DHT22;7362;50.956;4.184;2022-11-15T04:21:38;11.80;99.90
14551;DHT22;7362;50.956;4.184;2022-11-15T04:24:23;11.80;99.90
14551;DHT22;7362;50.956;4.184;2022-11-15T04:26:49;11.80;99.90
14551;DHT22;7362;50.956;4.184;2022-11-15T04:29:15;11.70;99.90
14551;DHT22;7362;50.956;4.184;2022-11-15T04:32:00;11.70;99.90
14551;DHT22;7362;50.956;4.184;2022-11-15T04:34:26;11.70;99.90
14551;DHT22;7362;50.956;4.184;2022-11-15T04:36:52;11.70;99.90
14551;DHT22;7362;50.956;4.184;2022-11-15T04:39:36;11.70;99.90
14551;DHT22;7362;50.956;4.184;2022-11-15T04:42:04;11.70;99.90
14551;DHT22;7362;50.956;4.184;2022-11-15T04:44:30;12.50;99.90
14551;DHT22;7362;50.956;4.184;2022-11-15T04:46:57;11.50;99.90
14551;DHT22;7362;50.956;4.184;2022-11-15T04:49:22;11.50;99.90
14551;DHT22;7362;50.956;4.184;2022-11-15T04:51:49;11.20;99.90
14551;DHT22;7362;50.956;4.184;2022-11-15T04:54:15;11.50;99.90
14551;DHT22;7362;50.956;4.184;2022-11-15T04:56:45;11.40;99.90
14551;DHT22;7362;50.956;4.184;2022-11-15T04:59:13;11.40;99.90
14551;DHT22;7362;50.956;4.184;2022-11-15T05:01:39;11.40;99.90
14551;DHT22;7362;50.956;4.184;2022-11-15T05:04:28;11.40;99.90
14551;DHT22;7362;50.956;4.184;2022-11-15T05:06:55;11.30;99.90
14551;DHT22;7362;50.956;4.184;2022-11-15T05:09:22;11.40;99.90
14551;DHT22;7362;50.956;4.184;2022-11-15T05:11:52;11.30;99.90
14551;DHT22;7362;50.956;4.184;2022-11-15T05:14:19;11.30;99.90
14551;DHT22;7362;50.956;4.184;2022-11-15T05:16:59;11.10;99.90
14551;DHT22;7362;50.956;4.184;2022-11-15T05:19:25;11.20;99.90
14551;DHT22;7362;50.956;4.184;2022-11-15T05:21:56;11.20;99.90
14551;DHT22;7362;50.956;4.184;2022-11-15T05:24:22;11.10;99.90
14551;DHT22;7362;50.956;4.184;2022-11-15T05:26:53;11.10;99.90
14551;DHT22;7362;50.956;4.184;2022-11-15T05:29:23;11.10;99.90
14551;DHT22;7362;50.956;4.184;2022-11-15T05:31:49;11.00;99.90
14551;DHT22;7362;50.956;4.184;2022-11-15T05:34:16;11.00;99.90
14551;DHT22;7362;50.956;4.184;2022-11-15T05:37:13;10.90;99.90
14551;DHT22;7362;50.956;4.184;2022-11-15T05:43:06;10.90;99.90
14551;DHT22;7362;50.956;4.184;2022-11-15T05:45:34;10.80;99.90
14551;DHT22;7362;50.956;4.184;2022-11-15T05:48:08;10.90;99.90
14551;DHT22;7362;50.956;4.184;2022-11-15T05:50:45;10.80;99.90
14551;DHT22;7362;50.956;4.184;2022-11-15T05:53:16;10.70;99.90
14551;DHT22;7362;50.956;4.184;2022-11-15T05:55:55;10.70;99.90
14551;DHT22;7362;50.956;4.184;2022-11-15T05:58:24;10.70;99.90
14551;DHT22;7362;50.956;4.184;2022-11-15T06:00:50;10.60;99.90
14551;DHT22;7362;50.956;4.184;2022-11-15T06:03:16;10.70;99.90
14551;DHT22;7362;50.956;4.184;2022-11-15T06:05:46;10.70;99.90
14551;DHT22;7362;50.956;4.184;2022-11-15T06:08:14;10.70;99.90
14551;DHT22;7362;50.956;4.184;2022-11-15T06:10:39;10.70;99.90
14551;DHT22;7362;50.956;4.184;2022-11-15T06:13:05;10.60;99.90
14551;DHT22;7362;50.956;4.184;2022-11-15T06:15:32;10.60;99.90
14551;DHT22;7362;50.956;4.184;2022-11-15T06:17:59;10.60;99.90
14551;DHT22;7362;50.956;4.184;2022-11-15T06:20:28;10.60;99.90
14551;DHT22;7362;50.956;4.184;2022-11-15T06:22:58;10.60;99.90
14551;DHT22;7362;50.956;4.184;2022-11-15T06:25:57;10.50;99.90
14551;DHT22;7362;50.956;4.184;2022-11-15T06:28:24;10.40;99.90
14551;DHT22;7362;50.956;4.184;2022-11-15T06:33:59;10.40;99.90
14551;DHT22;7362;50.956;4.184;2022-11-15T06:36:43;10.60;99.90
14551;DHT22;7362;50.956;4.184;2022-11-15T06:42:24;10.30;99.90
14551;DHT22;7362;50.956;4.184;2022-11-15T06:47:47;10.30;99.90
14551;DHT22;7362;50.956;4.184;2022-11-15T06:50:16;10.20;99.90
14551;DHT22;7362;50.956;4.184;2022-11-15T06:52:45;10.20;99.90
14551;DHT22;7362;50.956;4.184;2022-11-15T06:55:16;10.20;99.90
14551;DHT22;7362;50.956;4.184;2022-11-15T06:57:50;10.20;99.90
14551;DHT22;7362;50.956;4.184;2022-11-15T07:00:22;10.10;99.90
14551;DHT22;7362;50.956;4.184;2022-11-15T07:02:59;10.10;99.90
14551;DHT22;7362;50.956;4.184;2022-11-15T07:05:37;10.10;99.90
14551;DHT22;7362;50.956;4.184;2022-11-15T07:08:09;10.10;99.90
14551;DHT22;7362;50.956;4.184;2022-11-15T07:10:36;10.10;99.90
14551;DHT22;7362;50.956;4.184;2022-11-15T07:13:03;10.80;99.90
14551;DHT22;7362;50.956;4.184;2022-11-15T07:15:41;10.10;99.90
14551;DHT22;7362;50.956;4.184;2022-11-15T07:18:08;10.10;99.90
14551;DHT22;7362;50.956;4.184;2022-11-15T07:20:34;10.10;99.90
14551;DHT22;7362;50.956;4.184;2022-11-15T07:23:04;10.00;99.90
14551;DHT22;7362;50.956;4.184;2022-11-15T07:25:34;10.00;99.90
14551;DHT22;7362;50.956;4.184;2022-11-15T07:28:21;10.10;99.90
14551;DHT22;7362;50.956;4.184;2022-11-15T07:36:08;10.10;99.90
14551;DHT22;7362;50.956;4.184;2022-11-15T07:38:40;10.10;99.90
14551;DHT22;7362;50.956;4.184;2022-11-15T07:41:11;10.10;99.90
14551;DHT22;7362;50.956;4.184;2022-11-15T07:43:40;10.10;99.90
14551;DHT22;7362;50.956;4.184;2022-11-15T07:46:47;10.10;99.90
14551;DHT22;7362;50.956;4.184;2022-11-15T07:52:56;10.10;99.90
14551;DHT22;7362;50.956;4.184;2022-11-15T07:58:54;10.10;99.90
14551;DHT22;7362;50.956;4.184;2022-11-15T08:05:10;10.10;99.90
14551;DHT22;7362;50.956;4.184;2022-11-15T08:11:12;10.10;99.90
14551;DHT22;7362;50.956;4.184;2022-11-15T08:17:08;10.20;99.90
14551;DHT22;7362;50.956;4.184;2022-11-15T08:22:59;10.20;99.90
14551;DHT22;7362;50.956;4.184;2022-11-15T08:28:50;10.20;99.90
14551;DHT22;7362;50.956;4.184;2022-11-15T08:31:18;10.20;99.90
14551;DHT22;7362;50.956;4.184;2022-11-15T08:33:44;10.30;99.90
14551;DHT22;7362;50.956;4.184;2022-11-15T08:36:19;10.30;99.90
14551;DHT22;7362;50.956;4.184;2022-11-15T08:38:47;10.40;99.90
14551;DHT22;7362;50.956;4.184;2022-11-15T08:41:33;10.40;99.90
14551;DHT22;7362;50.956;4.184;2022-11-15T08:44:01;10.50;99.90
14551;DHT22;7362;50.956;4.184;2022-11-15T08:46:32;10.60;99.90
14551;DHT22;7362;50.956;4.184;2022-11-15T08:48:58;10.50;99.90
14551;DHT22;7362;50.956;4.184;2022-11-15T08:51:37;10.50;99.90
14551;DHT22;7362;50.956;4.184;2022-11-15T08:54:04;10.60;99.90
14551;DHT22;7362;50.956;4.184;2022-11-15T08:56:30;10.60;99.90
14551;DHT22;7362;50.956;4.184;2022-11-15T08:58:57;10.50;99.90
14551;DHT22;7362;50.956;4.184;2022-11-15T09:01:23;10.60;99.90
14551;DHT22;7362;50.956;4.184;2022-11-15T09:03:49;10.60;99.90
14551;DHT22;7362;50.956;4.184;2022-11-15T09:06:30;10.60;99.90
14551;DHT22;7362;50.956;4.184;2022-11-15T09:08:58;10.70;99.90
14551;DHT22;7362;50.956;4.184;2022-11-15T09:11:24;10.70;99.90
14551;DHT22;7362;50.956;4.184;2022-11-15T09:13:52;10.80;99.90
14551;DHT22;7362;50.956;4.184;2022-11-15T09:16:23;10.80;99.90
14551;DHT22;7362;50.956;4.184;2022-11-15T09:19:18;10.90;99.90
14551;DHT22;7362;50.956;4.184;2022-11-15T09:22:10;10.90;99.90
14551;DHT22;7362;50.956;4.184;2022-11-15T09:24:35;10.90;99.90
14551;DHT22;7362;50.956;4.184;2022-11-15T09:27:11;10.90;99.90
14551;DHT22;7362;50.956;4.184;2022-11-15T09:29:37;10.90;99.90
14551;DHT22;7362;50.956;4.184;2022-11-15T09:32:16;10.90;99.90
14551;DHT22;7362;50.956;4.184;2022-11-15T09:34:50;11.00;99.90
14551;DHT22;7362;50.956;4.184;2022-11-15T09:37:17;11.00;99.90
14551;DHT22;7362;50.956;4.184;2022-11-15T09:39:42;11.10;99.90
14551;DHT22;7362;50.956;4.184;2022-11-15T09:45:08;11.20;99.90
14551;DHT22;7362;50.956;4.184;2022-11-15T09:47:49;11.30;99.90
14551;DHT22;7362;50.956;4.184;2022-11-15T09:50:52;11.30;99.90
14551;DHT22;7362;50.956;4.184;2022-11-15T09:53:55;11.40;99.90
14551;DHT22;7362;50.956;4.184;2022-11-15T09:56:41;11.50;99.90
14551;DHT22;7362;50.956;4.184;2022-11-15T10:05:04;11.60;99.90
14551;DHT22;7362;50.956;4.184;2022-11-15T10:11:00;11.60;99.90
14551;DHT22;7362;50.956;4.184;2022-11-15T10:13:30;11.60;99.90
14551;DHT22;7362;50.956;4.184;2022-11-15T10:19:07;11.80;99.90
14551;DHT22;7362;50.956;4.184;2022-11-15T10:22:00;11.80;99.90
14551;DHT22;7362;50.956;4.184;2022-11-15T10:24:36;11.90;99.90
14551;DHT22;7362;50.956;4.184;2022-11-15T10:27:13;11.90;99.90
14551;DHT22;7362;50.956;4.184;2022-11-15T10:29:50;12.10;99.90
14551;DHT22;7362;50.956;4.184;2022-11-15T10:32:21;12.20;99.90
14551;DHT22;7362;50.956;4.184;2022-11-15T10:34:54;12.20;99.90
14551;DHT22;7362;50.956;4.184;2022-11-15T10:37:30;12.20;99.90
14551;DHT22;7362;50.956;4.184;2022-11-15T10:40:27;12.20;99.90
14551;DHT22;7362;50.956;4.184;2022-11-15T10:43:10;12.30;99.90
14551;DHT22;7362;50.956;4.184;2022-11-15T10:45:38;12.40;99.90
14551;DHT22;7362;50.956;4.184;2022-11-15T10:50:42;12.40;99.90
14551;DHT22;7362;50.956;4.184;2022-11-15T10:53:19;12.40;99.90
14551;DHT22;7362;50.956;4.184;2022-11-15T10:55:56;12.60;99.90
14551;DHT22;7362;50.956;4.184;2022-11-15T10:58:43;12.70;99.90
14551;DHT22;7362;50.956;4.184;2022-11-15T11:03:36;12.60;99.90
14551;DHT22;7362;50.956;4.184;2022-11-15T11:06:17;12.70;99.90
14551;DHT22;7362;50.956;4.184;2022-11-15T11:09:04;12.70;99.90
14551;DHT22;7362;50.956;4.184;2022-11-15T11:11:51;12.60;99.90
14551;DHT22;7362;50.956;4.184;2022-11-15T11:14:25;12.70;99.90
14551;DHT22;7362;50.956;4.184;2022-11-15T11:17:16;12.70;99.90
14551;DHT22;7362;50.956;4.184;2022-11-15T11:20:10;12.80;99.90
14551;DHT22;7362;50.956;4.184;2022-11-15T11:22:58;12.90;99.90
14551;DHT22;7362;50.956;4.184;2022-11-15T11:28:55;13.10;99.90
14551;DHT22;7362;50.956;4.184;2022-11-15T11:32:34;13.10;99.90
14551;DHT22;7362;50.956;4.184;2022-11-15T11:35:13;13.20;99.90
14551;DHT22;7362;50.956;4.184;2022-11-15T11:37:51;13.20;99.90
14551;DHT22;7362;50.956;4.184;2022-11-15T11:40:28;13.10;99.90
14551;DHT22;7362;50.956;4.184;2022-11-15T11:46:28;13.20;99.90
14551;DHT22;7362;50.956;4.184;2022-11-15T11:49:45;13.20;99.90
14551;DHT22;7362;50.956;4.184;2022-11-15T11:52:30;13.20;99.90
14551;DHT22;7362;50.956;4.184;2022-11-15T12:01:33;13.20;99.90
14551;DHT22;7362;50.956;4.184;2022-11-15T12:06:51;13.20;99.90
14551;DHT22;7362;50.956;4.184;2022-11-15T12:12:18;13.30;99.90
14551;DHT22;7362;50.956;4.184;2022-11-15T12:14:56;13.20;99.90
14551;DHT22;7362;50.956;4.184;2022-11-15T12:17:25;13.20;99.90
14551;DHT22;7362;50.956;4.184;2022-11-15T12:22:55;13.30;99.90
14551;DHT22;7362;50.956;4.184;2022-11-15T12:25:53;13.30;99.90
14551;DHT22;7362;50.956;4.184;2022-11-15T12:31:50;13.30;99.90
14551;DHT22;7362;50.956;4.184;2022-11-15T12:34:40;13.40;99.90
14551;DHT22;7362;50.956;4.184;2022-11-15T12:40:36;13.30;99.90
14551;DHT22;7362;50.956;4.184;2022-11-15T12:43:42;13.40;99.90
14551;DHT22;7362;50.956;4.184;2022-11-15T13:02:45;13.70;99.90
14551;DHT22;7362;50.956;4.184;2022-11-15T13:08:45;13.80;99.90
14551;DHT22;7362;50.956;4.184;2022-11-15T13:11:46;13.70;99.90
14551;DHT22;7362;50.956;4.184;2022-11-15T13:20:52;13.90;99.90
14551;DHT22;7362;50.956;4.184;2022-11-15T13:23:18;13.90;99.90
14551;DHT22;7362;50.956;4.184;2022-11-15T13:30:54;13.80;99.90
14551;DHT22;7362;50.956;4.184;2022-11-15T13:33:49;13.80;99.90
14551;DHT22;7362;50.956;4.184;2022-11-15T13:36:31;13.70;99.90
14551;DHT22;7362;50.956;4.184;2022-11-15T13:39:14;13.70;99.90
14551;DHT22;7362;50.956;4.184;2022-11-15T13:41:49;13.70;99.90
14551;DHT22;7362;50.956;4.184;2022-11-15T13:44:33;13.70;99.90
14551;DHT22;7362;50.956;4.184;2022-11-15T13:47:19;13.80;99.90
14551;DHT22;7362;50.956;4.184;2022-11-15T13:49:47;13.80;99.90
14551;DHT22;7362;50.956;4.184;2022-11-15T13:52:16;13.70;99.90
14551;DHT22;7362;50.956;4.184;2022-11-15T13:57:26;13.80;99.90
14551;DHT22;7362;50.956;4.184;2022-11-15T14:00:03;13.80;99.90
14551;DHT22;7362;50.956;4.184;2022-11-15T14:02:34;13.80;99.90
14551;DHT22;7362;50.956;4.184;2022-11-15T14:05:25;13.80;99.90
14551;DHT22;7362;50.956;4.184;2022-11-15T14:08:24;13.80;99.90
14551;DHT22;7362;50.956;4.184;2022-11-15T14:11:09;13.80;99.90
14551;DHT22;7362;50.956;4.184;2022-11-15T14:13:36;13.60;99.90
14551;DHT22;7362;50.956;4.184;2022-11-15T14:16:32;13.70;99.90
14551;DHT22;7362;50.956;4.184;2022-11-15T14:19:10;13.80;99.90
14551;DHT22;7362;50.956;4.184;2022-11-15T14:28:27;13.70;99.90
14551;DHT22;7362;50.956;4.184;2022-11-15T14:31:06;13.60;99.90
14551;DHT22;7362;50.956;4.184;2022-11-15T14:33:41;13.60;99.90
14551;DHT22;7362;50.956;4.184;2022-11-15T14:36:19;13.50;99.90
14551;DHT22;7362;50.956;4.184;2022-11-15T14:38:46;13.40;99.90
14551;DHT22;7362;50.956;4.184;2022-11-15T14:41:19;13.40;99.90
14551;DHT22;7362;50.956;4.184;2022-11-15T14:44:05;13.40;99.90
14551;DHT22;7362;50.956;4.184;2022-11-15T14:46:42;13.30;99.90
14551;DHT22;7362;50.956;4.184;2022-11-15T14:49:14;13.20;99.90
14551;DHT22;7362;50.956;4.184;2022-11-15T14:51:46;13.20;99.90
14551;DHT22;7362;50.956;4.184;2022-11-15T14:54:35;13.20;99.90
14551;DHT22;7362;50.956;4.184;2022-11-15T14:57:06;13.20;99.90
14551;DHT22;7362;50.956;4.184;2022-11-15T14:59:55;13.10;99.90
14551;DHT22;7362;50.956;4.184;2022-11-15T15:02:23;13.10;99.90
14551;DHT22;7362;50.956;4.184;2022-11-15T15:05:18;13.10;99.90
14551;DHT22;7362;50.956;4.184;2022-11-15T15:07:52;13.00;99.90
14551;DHT22;7362;50.956;4.184;2022-11-15T15:10:55;13.00;99.90
14551;DHT22;7362;50.956;4.184;2022-11-15T15:13:27;13.00;99.90
14551;DHT22;7362;50.956;4.184;2022-11-15T15:15:55;12.90;99.90
14551;DHT22;7362;50.956;4.184;2022-11-15T15:18:39;12.90;99.90
14551;DHT22;7362;50.956;4.184;2022-11-15T15:21:24;12.90;99.90
14551;DHT22;7362;50.956;4.184;2022-11-15T15:23:53;12.90;99.90
14551;DHT22;7362;50.956;4.184;2022-11-15T15:26:25;12.80;99.90
14551;DHT22;7362;50.956;4.184;2022-11-15T15:28:54;12.80;99.90
14551;DHT22;7362;50.956;4.184;2022-11-15T15:31:23;12.80;99.90
14551;DHT22;7362;50.956;4.184;2022-11-15T15:34:06;12.70;99.90
14551;DHT22;7362;50.956;4.184;2022-11-15T15:36:37;12.80;99.90
14551;DHT22;7362;50.956;4.184;2022-11-15T15:39:44;12.70;99.90
14551;DHT22;7362;50.956;4.184;2022-11-15T15:42:09;12.70;99.90
14551;DHT22;7362;50.956;4.184;2022-11-15T15:44:37;12.70;99.90
14551;DHT22;7362;50.956;4.184;2022-11-15T15:47:16;12.70;99.90
14551;DHT22;7362;50.956;4.184;2022-11-15T15:49:44;12.70;99.90
14551;DHT22;7362;50.956;4.184;2022-11-15T15:52:10;12.60;99.90
14551;DHT22;7362;50.956;4.184;2022-11-15T15:54:41;12.60;99.90
14551;DHT22;7362;50.956;4.184;2022-11-15T15:57:16;12.50;99.90
14551;DHT22;7362;50.956;4.184;2022-11-15T15:59:43;12.60;99.90
14551;DHT22;7362;50.956;4.184;2022-11-15T16:02:12;12.50;99.90
14551;DHT22;7362;50.956;4.184;2022-11-15T16:04:38;12.50;99.90
14551;DHT22;7362;50.956;4.184;2022-11-15T16:07:04;12.50;99.90
14551;DHT22;7362;50.956;4.184;2022-11-15T16:09:30;12.50;99.90
14551;DHT22;7362;50.956;4.184;2022-11-15T16:12:15;12.50;99.90
14551;DHT22;7362;50.956;4.184;2022-11-15T16:14:52;12.50;99.90
14551;DHT22;7362;50.956;4.184;2022-11-15T16:17:30;12.50;99.90
14551;DHT22;7362;50.956;4.184;2022-11-15T16:19:57;12.50;99.90
14551;DHT22;7362;50.956;4.184;2022-11-15T16:22:27;12.50;99.90
14551;DHT22;7362;50.956;4.184;2022-11-15T16:24:54;12.50;99.90
14551;DHT22;7362;50.956;4.184;2022-11-15T16:27:21;12.50;99.90
14551;DHT22;7362;50.956;4.184;2022-11-15T16:29:50;12.50;99.90
14551;DHT22;7362;50.956;4.184;2022-11-15T16:32:20;12.50;99.90
14551;DHT22;7362;50.956;4.184;2022-11-15T16:34:45;12.50;99.90
14551;DHT22;7362;50.956;4.184;2022-11-15T16:40:00;12.50;99.90
14551;DHT22;7362;50.956;4.184;2022-11-15T16:42:51;12.50;99.90
14551;DHT22;7362;50.956;4.184;2022-11-15T16:45:53;12.10;99.90
14551;DHT22;7362;50.956;4.184;2022-11-15T16:48:24;12.50;99.90
14551;DHT22;7362;50.956;4.184;2022-11-15T16:51:38;12.50;99.90
14551;DHT22;7362;50.956;4.184;2022-11-15T16:54:45;12.60;99.90
14551;DHT22;7362;50.956;4.184;2022-11-15T16:57:14;12.50;99.90
14551;DHT22;7362;50.956;4.184;2022-11-15T16:59:44;12.50;99.90
14551;DHT22;7362;50.956;4.184;2022-11-15T17:05:10;12.50;99.90
14551;DHT22;7362;50.956;4.184;2022-11-15T17:07:40;12.50;99.90
14551;DHT22;7362;50.956;4.184;2022-11-15T17:10:06;12.50;99.90
14551;DHT22;7362;50.956;4.184;2022-11-15T17:12:35;12.50;99.90
14551;DHT22;7362;50.956;4.184;2022-11-15T17:15:06;12.50;99.90
14551;DHT22;7362;50.956;4.184;2022-11-15T17:17:33;12.50;99.90
14551;DHT22;7362;50.956;4.184;2022-11-15T17:19:59;12.50;99.90
14551;DHT22;7362;50.956;4.184;2022-11-15T17:22:32;12.50;99.90
14551;DHT22;7362;50.956;4.184;2022-11-15T17:24:57;12.50;99.90
14551;DHT22;7362;50.956;4.184;2022-11-15T17:27:28;12.50;99.90
14551;DHT22;7362;50.956;4.184;2022-11-15T17:30:00;12.50;99.90
14551;DHT22;7362;50.956;4.184;2022-11-15T17:32:26;12.60;99.90
14551;DHT22;7362;50.956;4.184;2022-11-15T17:34:54;12.50;99.90
14551;DHT22;7362;50.956;4.184;2022-11-15T17:37:26;12.50;99.90
14551;DHT22;7362;50.956;4.184;2022-11-15T17:39:51;12.50;99.90
14551;DHT22;7362;50.956;4.184;2022-11-15T17:42:17;12.40;99.90
14551;DHT22;7362;50.956;4.184;2022-11-15T17:44:45;12.40;99.90
14551;DHT22;7362;50.956;4.184;2022-11-15T17:47:11;12.40;99.90
14551;DHT22;7362;50.956;4.184;2022-11-15T17:49:36;12.40;99.90
14551;DHT22;7362;50.956;4.184;2022-11-15T17:52:09;12.40;99.90
14551;DHT22;7362;50.956;4.184;2022-11-15T17:54:38;12.40;99.90
14551;DHT22;7362;50.956;4.184;2022-11-15T17:57:07;12.40;99.90
14551;DHT22;7362;50.956;4.184;2022-11-15T17:59:33;12.40;99.90
14551;DHT22;7362;50.956;4.184;2022-11-15T18:02:00;12.40;99.90
14551;DHT22;7362;50.956;4.184;2022-11-15T18:04:32;12.40;99.90
14551;DHT22;7362;50.956;4.184;2022-11-15T18:07:00;12.40;99.90
14551;DHT22;7362;50.956;4.184;2022-11-15T18:09:28;12.30;99.90
14551;DHT22;7362;50.956;4.184;2022-11-15T18:11:59;12.40;99.90
14551;DHT22;7362;50.956;4.184;2022-11-15T18:14:28;12.40;99.90
14551;DHT22;7362;50.956;4.184;2022-11-15T18:16:54;12.50;99.90
14551;DHT22;7362;50.956;4.184;2022-11-15T18:19:21;12.50;99.90
14551;DHT22;7362;50.956;4.184;2022-11-15T18:21:48;12.50;99.90
14551;DHT22;7362;50.956;4.184;2022-11-15T18:24:36;12.60;99.90
14551;DHT22;7362;50.956;4.184;2022-11-15T18:27:04;12.50;99.90
14551;DHT22;7362;50.956;4.184;2022-11-15T18:29:30;12.50;99.90
14551;DHT22;7362;50.956;4.184;2022-11-15T18:31:58;12.60;99.90
14551;DHT22;7362;50.956;4.184;2022-11-15T18:34:25;12.60;99.90
14551;DHT22;7362;50.956;4.184;2022-11-15T18:36:54;12.80;99.90
14551;DHT22;7362;50.956;4.184;2022-11-15T18:39:23;12.60;99.90
14551;DHT22;7362;50.956;4.184;2022-11-15T18:41:52;12.60;99.90
14551;DHT22;7362;50.956;4.184;2022-11-15T18:44:20;12.60;99.90
14551;DHT22;7362;50.956;4.184;2022-11-15T18:46:51;12.60;99.90
14551;DHT22;7362;50.956;4.184;2022-11-15T18:49:20;12.60;99.90
14551;DHT22;7362;50.956;4.184;2022-11-15T18:51:50;12.60;99.90
14551;DHT22;7362;50.956;4.184;2022-11-15T18:54:18;12.60;99.90
14551;DHT22;7362;50.956;4.184;2022-11-15T18:56:49;12.60;99.90
14551;DHT22;7362;50.956;4.184;2022-11-15T18:59:42;12.60;99.90
14551;DHT22;7362;50.956;4.184;2022-11-15T19:02:11;12.60;99.90
14551;DHT22;7362;50.956;4.184;2022-11-15T19:04:41;12.60;99.90
14551;DHT22;7362;50.956;4.184;2022-11-15T19:07:28;12.60;99.90
14551;DHT22;7362;50.956;4.184;2022-11-15T19:09:54;12.60;99.90
14551;DHT22;7362;50.956;4.184;2022-11-15T19:12:22;12.60;99.90
14551;DHT22;7362;50.956;4.184;2022-11-15T19:14:50;12.60;99.90
14551;DHT22;7362;50.956;4.184;2022-11-15T19:17:24;12.60;99.90
14551;DHT22;7362;50.956;4.184;2022-11-15T19:19:59;12.60;99.90
14551;DHT22;7362;50.956;4.184;2022-11-15T19:22:28;12.60;99.90